sensor_id;sensor_type;location;lat;lon;timestamp;P1;durP1;ratioP1;P2;durP2;ratioP2
67442;SDS011;54311;51.726;5.154;2023-11-18T00:01:45;38.83;;;29.58;;
67442;SDS011;54311;51.726;5.154;2023-11-18T00:04:10;34.97;;;28.60;;
67442;SDS011;54311;51.726;5.154;2023-11-18T00:06:41;34.38;;;29.33;;
67442;SDS011;54311;51.726;5.154;2023-11-18T00:09:09;35.45;;;29.50;;
67442;SDS011;54311;51.726;5.154;2023-11-18T00:11:37;35.05;;;30.10;;
67442;SDS011;54311;51.726;5.154;2023-11-18T00:14:03;38.33;;;30.92;;
67442;SDS011;54311;51.726;5.154;2023-11-18T00:16:29;39.55;;;30.05;;
67442;SDS011;54311;51.726;5.154;2023-11-18T00:18:55;35.58;;;30.23;;
67442;SDS011;54311;51.726;5.154;2023-11-18T00:21:20;43.60;;;30.77;;
67442;SDS011;54311;51.726;5.154;2023-11-18T00:23:45;35.80;;;29.80;;
67442;SDS011;54311;51.726;5.154;2023-11-18T00:26:11;36.88;;;28.75;;
67442;SDS011;54311;51.726;5.154;2023-11-18T00:28:38;31.73;;;27.50;;
67442;SDS011;54311;51.726;5.154;2023-11-18T00:31:03;36.20;;;30.27;;
67442;SDS011;54311;51.726;5.154;2023-11-18T00:33:29;34.53;;;28.52;;
67442;SDS011;54311;51.726;5.154;2023-11-18T00:35:55;34.65;;;28.15;;
67442;SDS011;54311;51.726;5.154;2023-11-18T00:38:20;35.30;;;28.63;;
67442;SDS011;54311;51.726;5.154;2023-11-18T00:40:45;34.20;;;29.05;;
67442;SDS011;54311;51.726;5.154;2023-11-18T00:43:11;36.17;;;30.23;;
67442;SDS011;54311;51.726;5.154;2023-11-18T00:45:36;36.05;;;30.10;;
67442;SDS011;54311;51.726;5.154;2023-11-18T00:48:02;36.17;;;28.30;;
67442;SDS011;54311;51.726;5.154;2023-11-18T00:50:29;31.33;;;27.92;;
67442;SDS011;54311;51.726;5.154;2023-11-18T00:52:54;32.83;;;27.98;;
67442;SDS011;54311;51.726;5.154;2023-11-18T00:55:20;34.28;;;29.45;;
67442;SDS011;54311;51.726;5.154;2023-11-18T00:57:45;36.55;;;28.58;;
67442;SDS011;54311;51.726;5.154;2023-11-18T01:00:11;36.17;;;28.40;;
67442;SDS011;54311;51.726;5.154;2023-11-18T01:02:55;30.10;;;26.15;;
67442;SDS011;54311;51.726;5.154;2023-11-18T01:05:21;32.35;;;28.30;;
67442;SDS011;54311;51.726;5.154;2023-11-18T01:07:47;31.95;;;26.83;;
67442;SDS011;54311;51.726;5.154;2023-11-18T01:10:12;34.45;;;28.67;;
67442;SDS011;54311;51.726;5.154;2023-11-18T01:12:38;31.95;;;28.48;;
67442;SDS011;54311;51.726;5.154;2023-11-18T01:15:06;36.78;;;27.48;;
67442;SDS011;54311;51.726;5.154;2023-11-18T01:17:32;38.17;;;27.92;;
67442;SDS011;54311;51.726;5.154;2023-11-18T01:19:58;33.92;;;29.40;;
67442;SDS011;54311;51.726;5.154;2023-11-18T01:22:24;38.08;;;29.02;;
67442;SDS011;54311;51.726;5.154;2023-11-18T01:24:49;36.17;;;28.42;;
67442;SDS011;54311;51.726;5.154;2023-11-18T01:27:16;34.85;;;28.88;;
67442;SDS011;54311;51.726;5.154;2023-11-18T01:29:44;33.85;;;30.15;;
67442;SDS011;54311;51.726;5.154;2023-11-18T01:32:09;33.28;;;27.17;;
67442;SDS011;54311;51.726;5.154;2023-11-18T01:34:38;33.05;;;29.48;;
67442;SDS011;54311;51.726;5.154;2023-11-18T01:37:04;35.03;;;28.08;;
67442;SDS011;54311;51.726;5.154;2023-11-18T01:39:33;36.25;;;29.80;;
67442;SDS011;54311;51.726;5.154;2023-11-18T01:41:59;34.78;;;29.42;;
67442;SDS011;54311;51.726;5.154;2023-11-18T01:44:24;45.33;;;30.38;;
67442;SDS011;54311;51.726;5.154;2023-11-18T01:46:53;34.15;;;30.50;;
67442;SDS011;54311;51.726;5.154;2023-11-18T01:49:19;40.40;;;29.45;;
67442;SDS011;54311;51.726;5.154;2023-11-18T01:51:45;38.55;;;31.77;;
67442;SDS011;54311;51.726;5.154;2023-11-18T01:54:11;38.67;;;33.00;;
67442;SDS011;54311;51.726;5.154;2023-11-18T01:56:41;42.55;;;33.92;;
67442;SDS011;54311;51.726;5.154;2023-11-18T01:59:09;40.78;;;33.22;;
67442;SDS011;54311;51.726;5.154;2023-11-18T02:01:35;37.40;;;31.52;;
67442;SDS011;54311;51.726;5.154;2023-11-18T02:04:01;42.05;;;31.42;;
67442;SDS011;54311;51.726;5.154;2023-11-18T02:06:26;40.42;;;33.03;;
67442;SDS011;54311;51.726;5.154;2023-11-18T02:08:52;40.17;;;33.10;;
67442;SDS011;54311;51.726;5.154;2023-11-18T02:11:25;42.22;;;35.55;;
67442;SDS011;54311;51.726;5.154;2023-11-18T02:13:56;37.28;;;32.70;;
67442;SDS011;54311;51.726;5.154;2023-11-18T02:16:24;40.60;;;32.38;;
67442;SDS011;54311;51.726;5.154;2023-11-18T02:18:50;44.92;;;34.17;;
67442;SDS011;54311;51.726;5.154;2023-11-18T02:21:18;41.35;;;35.45;;
67442;SDS011;54311;51.726;5.154;2023-11-18T02:23:44;40.97;;;33.88;;
67442;SDS011;54311;51.726;5.154;2023-11-18T02:26:09;39.78;;;34.53;;
67442;SDS011;54311;51.726;5.154;2023-11-18T02:28:34;45.17;;;35.55;;
67442;SDS011;54311;51.726;5.154;2023-11-18T02:31:10;44.40;;;34.88;;
67442;SDS011;54311;51.726;5.154;2023-11-18T02:33:44;43.67;;;35.30;;
67442;SDS011;54311;51.726;5.154;2023-11-18T02:38:49;42.67;;;35.10;;
67442;SDS011;54311;51.726;5.154;2023-11-18T02:41:15;47.42;;;35.28;;
67442;SDS011;54311;51.726;5.154;2023-11-18T02:43:43;42.67;;;35.28;;
67442;SDS011;54311;51.726;5.154;2023-11-18T02:46:10;47.33;;;37.75;;
67442;SDS011;54311;51.726;5.154;2023-11-18T02:48:37;51.42;;;38.33;;
67442;SDS011;54311;51.726;5.154;2023-11-18T02:51:04;53.22;;;40.38;;
67442;SDS011;54311;51.726;5.154;2023-11-18T02:53:29;49.58;;;36.17;;
67442;SDS011;54311;51.726;5.154;2023-11-18T02:55:55;39.45;;;33.88;;
67442;SDS011;54311;51.726;5.154;2023-11-18T02:58:27;47.17;;;35.60;;
67442;SDS011;54311;51.726;5.154;2023-11-18T03:00:54;41.40;;;36.83;;
67442;SDS011;54311;51.726;5.154;2023-11-18T03:03:19;47.50;;;36.13;;
67442;SDS011;54311;51.726;5.154;2023-11-18T03:05:45;43.45;;;36.33;;
67442;SDS011;54311;51.726;5.154;2023-11-18T03:08:13;44.28;;;36.63;;
67442;SDS011;54311;51.726;5.154;2023-11-18T03:10:39;45.33;;;35.78;;
67442;SDS011;54311;51.726;5.154;2023-11-18T03:13:05;46.63;;;35.22;;
67442;SDS011;54311;51.726;5.154;2023-11-18T03:15:31;44.90;;;35.75;;
67442;SDS011;54311;51.726;5.154;2023-11-18T03:17:57;45.33;;;36.45;;
67442;SDS011;54311;51.726;5.154;2023-11-18T03:20:23;39.92;;;33.40;;
67442;SDS011;54311;51.726;5.154;2023-11-18T03:22:50;43.10;;;35.83;;
67442;SDS011;54311;51.726;5.154;2023-11-18T03:25:16;42.40;;;36.05;;
67442;SDS011;54311;51.726;5.154;2023-11-18T03:27:42;41.95;;;35.55;;
67442;SDS011;54311;51.726;5.154;2023-11-18T03:30:09;41.17;;;33.80;;
67442;SDS011;54311;51.726;5.154;2023-11-18T03:32:35;39.80;;;33.80;;
67442;SDS011;54311;51.726;5.154;2023-11-18T03:35:04;37.40;;;32.80;;
67442;SDS011;54311;51.726;5.154;2023-11-18T03:37:37;37.15;;;32.88;;
67442;SDS011;54311;51.726;5.154;2023-11-18T03:40:09;39.38;;;32.10;;
67442;SDS011;54311;51.726;5.154;2023-11-18T03:42:36;41.70;;;32.33;;
67442;SDS011;54311;51.726;5.154;2023-11-18T03:45:02;36.15;;;31.13;;
67442;SDS011;54311;51.726;5.154;2023-11-18T03:47:28;36.50;;;32.13;;
67442;SDS011;54311;51.726;5.154;2023-11-18T03:49:55;37.85;;;33.13;;
67442;SDS011;54311;51.726;5.154;2023-11-18T03:52:21;37.20;;;31.95;;
67442;SDS011;54311;51.726;5.154;2023-11-18T03:54:46;41.55;;;32.05;;
67442;SDS011;54311;51.726;5.154;2023-11-18T03:57:12;42.00;;;33.50;;
67442;SDS011;54311;51.726;5.154;2023-11-18T03:59:38;41.83;;;31.95;;
67442;SDS011;54311;51.726;5.154;2023-11-18T04:02:04;40.92;;;33.50;;
67442;SDS011;54311;51.726;5.154;2023-11-18T04:04:30;37.25;;;31.73;;
67442;SDS011;54311;51.726;5.154;2023-11-18T04:06:55;41.40;;;32.90;;
67442;SDS011;54311;51.726;5.154;2023-11-18T04:09:20;39.97;;;31.77;;
67442;SDS011;54311;51.726;5.154;2023-11-18T04:11:46;37.33;;;32.15;;
67442;SDS011;54311;51.726;5.154;2023-11-18T04:14:11;37.38;;;31.35;;
67442;SDS011;54311;51.726;5.154;2023-11-18T04:16:38;40.33;;;32.53;;
67442;SDS011;54311;51.726;5.154;2023-11-18T04:19:03;43.85;;;33.30;;
67442;SDS011;54311;51.726;5.154;2023-11-18T04:21:29;39.83;;;31.50;;
67442;SDS011;54311;51.726;5.154;2023-11-18T04:23:54;37.90;;;30.85;;
67442;SDS011;54311;51.726;5.154;2023-11-18T04:26:20;39.22;;;30.40;;
67442;SDS011;54311;51.726;5.154;2023-11-18T04:28:45;40.83;;;32.72;;
67442;SDS011;54311;51.726;5.154;2023-11-18T04:31:10;40.83;;;30.65;;
67442;SDS011;54311;51.726;5.154;2023-11-18T04:33:36;41.28;;;30.73;;
67442;SDS011;54311;51.726;5.154;2023-11-18T04:36:01;42.63;;;30.40;;
67442;SDS011;54311;51.726;5.154;2023-11-18T04:38:27;42.28;;;32.97;;
67442;SDS011;54311;51.726;5.154;2023-11-18T04:40:53;37.63;;;30.05;;
67442;SDS011;54311;51.726;5.154;2023-11-18T04:43:21;43.30;;;30.95;;
67442;SDS011;54311;51.726;5.154;2023-11-18T04:45:49;38.72;;;31.30;;
67442;SDS011;54311;51.726;5.154;2023-11-18T04:48:15;40.78;;;30.42;;
67442;SDS011;54311;51.726;5.154;2023-11-18T04:50:43;38.58;;;30.02;;
67442;SDS011;54311;51.726;5.154;2023-11-18T04:53:08;43.22;;;30.35;;
67442;SDS011;54311;51.726;5.154;2023-11-18T04:55:35;38.45;;;32.22;;
67442;SDS011;54311;51.726;5.154;2023-11-18T04:58:01;36.47;;;30.23;;
67442;SDS011;54311;51.726;5.154;2023-11-18T05:00:27;40.28;;;31.40;;
67442;SDS011;54311;51.726;5.154;2023-11-18T05:02:53;35.80;;;29.42;;
67442;SDS011;54311;51.726;5.154;2023-11-18T05:05:19;44.03;;;30.17;;
67442;SDS011;54311;51.726;5.154;2023-11-18T05:07:44;36.95;;;29.27;;
67442;SDS011;54311;51.726;5.154;2023-11-18T05:10:10;37.83;;;29.77;;
67442;SDS011;54311;51.726;5.154;2023-11-18T05:12:36;42.80;;;30.23;;
67442;SDS011;54311;51.726;5.154;2023-11-18T05:15:03;38.20;;;29.30;;
67442;SDS011;54311;51.726;5.154;2023-11-18T05:17:29;35.40;;;28.80;;
67442;SDS011;54311;51.726;5.154;2023-11-18T05:19:55;40.20;;;29.23;;
67442;SDS011;54311;51.726;5.154;2023-11-18T05:22:20;38.33;;;27.90;;
67442;SDS011;54311;51.726;5.154;2023-11-18T05:24:46;35.70;;;29.90;;
67442;SDS011;54311;51.726;5.154;2023-11-18T05:27:12;35.13;;;27.92;;
67442;SDS011;54311;51.726;5.154;2023-11-18T05:29:38;36.67;;;28.70;;
67442;SDS011;54311;51.726;5.154;2023-11-18T05:32:06;40.53;;;29.08;;
67442;SDS011;54311;51.726;5.154;2023-11-18T05:34:32;35.35;;;27.05;;
67442;SDS011;54311;51.726;5.154;2023-11-18T05:36:58;33.20;;;27.02;;
67442;SDS011;54311;51.726;5.154;2023-11-18T05:39:24;36.70;;;27.10;;
67442;SDS011;54311;51.726;5.154;2023-11-18T05:41:49;33.20;;;26.00;;
67442;SDS011;54311;51.726;5.154;2023-11-18T05:44:16;36.33;;;26.33;;
67442;SDS011;54311;51.726;5.154;2023-11-18T05:46:46;34.55;;;25.63;;
67442;SDS011;54311;51.726;5.154;2023-11-18T05:49:12;31.08;;;25.20;;
67442;SDS011;54311;51.726;5.154;2023-11-18T05:51:39;28.10;;;24.90;;
67442;SDS011;54311;51.726;5.154;2023-11-18T05:54:05;32.85;;;25.63;;
67442;SDS011;54311;51.726;5.154;2023-11-18T05:56:31;35.28;;;25.38;;
67442;SDS011;54311;51.726;5.154;2023-11-18T05:58:57;31.55;;;24.45;;
67442;SDS011;54311;51.726;5.154;2023-11-18T06:01:23;28.88;;;24.08;;
67442;SDS011;54311;51.726;5.154;2023-11-18T06:03:49;30.05;;;24.13;;
67442;SDS011;54311;51.726;5.154;2023-11-18T06:06:15;33.90;;;24.10;;
67442;SDS011;54311;51.726;5.154;2023-11-18T06:08:43;35.03;;;23.55;;
67442;SDS011;54311;51.726;5.154;2023-11-18T06:11:09;29.17;;;23.45;;
67442;SDS011;54311;51.726;5.154;2023-11-18T06:16:16;29.90;;;23.75;;
67442;SDS011;54311;51.726;5.154;2023-11-18T06:18:50;33.10;;;23.80;;
67442;SDS011;54311;51.726;5.154;2023-11-18T06:21:18;29.38;;;22.73;;
67442;SDS011;54311;51.726;5.154;2023-11-18T06:23:45;34.40;;;22.15;;
67442;SDS011;54311;51.726;5.154;2023-11-18T06:26:12;26.38;;;22.20;;
67442;SDS011;54311;51.726;5.154;2023-11-18T06:28:44;29.15;;;20.63;;
67442;SDS011;54311;51.726;5.154;2023-11-18T06:31:10;31.23;;;22.05;;
67442;SDS011;54311;51.726;5.154;2023-11-18T06:33:42;27.33;;;21.02;;
67442;SDS011;54311;51.726;5.154;2023-11-18T06:36:09;29.40;;;21.48;;
67442;SDS011;54311;51.726;5.154;2023-11-18T06:38:36;24.73;;;21.15;;
67442;SDS011;54311;51.726;5.154;2023-11-18T06:41:02;32.70;;;21.13;;
67442;SDS011;54311;51.726;5.154;2023-11-18T06:43:30;32.03;;;21.42;;
67442;SDS011;54311;51.726;5.154;2023-11-18T06:46:07;28.00;;;21.20;;
67442;SDS011;54311;51.726;5.154;2023-11-18T06:48:35;25.73;;;21.30;;
67442;SDS011;54311;51.726;5.154;2023-11-18T06:51:00;30.45;;;20.88;;
67442;SDS011;54311;51.726;5.154;2023-11-18T06:53:27;35.65;;;21.27;;
67442;SDS011;54311;51.726;5.154;2023-11-18T06:55:52;25.63;;;20.52;;
67442;SDS011;54311;51.726;5.154;2023-11-18T06:58:17;31.80;;;20.95;;
67442;SDS011;54311;51.726;5.154;2023-11-18T07:00:43;28.40;;;19.98;;
67442;SDS011;54311;51.726;5.154;2023-11-18T07:03:08;27.48;;;20.70;;
67442;SDS011;54311;51.726;5.154;2023-11-18T07:05:34;25.10;;;19.23;;
67442;SDS011;54311;51.726;5.154;2023-11-18T07:08:00;32.58;;;20.58;;
67442;SDS011;54311;51.726;5.154;2023-11-18T07:10:25;26.70;;;19.23;;
67442;SDS011;54311;51.726;5.154;2023-11-18T07:12:52;33.65;;;19.70;;
67442;SDS011;54311;51.726;5.154;2023-11-18T07:15:18;23.77;;;19.83;;
67442;SDS011;54311;51.726;5.154;2023-11-18T07:17:43;22.13;;;18.10;;
67442;SDS011;54311;51.726;5.154;2023-11-18T07:20:09;23.25;;;18.20;;
67442;SDS011;54311;51.726;5.154;2023-11-18T07:22:37;30.63;;;18.20;;
67442;SDS011;54311;51.726;5.154;2023-11-18T07:25:03;26.20;;;19.02;;
67442;SDS011;54311;51.726;5.154;2023-11-18T07:27:33;22.17;;;18.13;;
67442;SDS011;54311;51.726;5.154;2023-11-18T07:29:59;27.35;;;17.88;;
67442;SDS011;54311;51.726;5.154;2023-11-18T07:32:25;23.88;;;17.48;;
67442;SDS011;54311;51.726;5.154;2023-11-18T07:34:50;21.73;;;17.30;;
67442;SDS011;54311;51.726;5.154;2023-11-18T07:37:15;26.52;;;18.15;;
67442;SDS011;54311;51.726;5.154;2023-11-18T07:39:41;23.85;;;17.25;;
67442;SDS011;54311;51.726;5.154;2023-11-18T07:42:11;26.23;;;16.80;;
67442;SDS011;54311;51.726;5.154;2023-11-18T07:44:37;26.10;;;18.65;;
67442;SDS011;54311;51.726;5.154;2023-11-18T07:47:04;28.17;;;17.13;;
67442;SDS011;54311;51.726;5.154;2023-11-18T07:49:30;23.73;;;16.60;;
67442;SDS011;54311;51.726;5.154;2023-11-18T07:51:56;19.40;;;15.90;;
67442;SDS011;54311;51.726;5.154;2023-11-18T07:54:21;18.73;;;16.05;;
67442;SDS011;54311;51.726;5.154;2023-11-18T07:56:48;24.23;;;16.90;;
67442;SDS011;54311;51.726;5.154;2023-11-18T07:59:14;24.38;;;16.35;;
67442;SDS011;54311;51.726;5.154;2023-11-18T08:01:44;20.90;;;15.93;;
67442;SDS011;54311;51.726;5.154;2023-11-18T08:04:11;22.00;;;16.20;;
67442;SDS011;54311;51.726;5.154;2023-11-18T08:06:38;18.70;;;14.95;;
67442;SDS011;54311;51.726;5.154;2023-11-18T08:09:08;20.92;;;15.20;;
67442;SDS011;54311;51.726;5.154;2023-11-18T08:11:38;18.67;;;14.45;;
67442;SDS011;54311;51.726;5.154;2023-11-18T08:14:06;19.80;;;15.90;;
67442;SDS011;54311;51.726;5.154;2023-11-18T08:16:33;19.55;;;15.38;;
67442;SDS011;54311;51.726;5.154;2023-11-18T08:18:58;17.98;;;15.38;;
67442;SDS011;54311;51.726;5.154;2023-11-18T08:21:24;15.52;;;13.90;;
67442;SDS011;54311;51.726;5.154;2023-11-18T08:23:49;20.67;;;15.25;;
67442;SDS011;54311;51.726;5.154;2023-11-18T08:26:14;17.60;;;14.15;;
67442;SDS011;54311;51.726;5.154;2023-11-18T08:28:40;18.73;;;13.40;;
67442;SDS011;54311;51.726;5.154;2023-11-18T08:31:05;22.92;;;13.88;;
67442;SDS011;54311;51.726;5.154;2023-11-18T08:33:31;18.42;;;13.07;;
67442;SDS011;54311;51.726;5.154;2023-11-18T08:35:58;14.82;;;12.25;;
67442;SDS011;54311;51.726;5.154;2023-11-18T08:38:23;13.68;;;11.30;;
67442;SDS011;54311;51.726;5.154;2023-11-18T08:40:49;14.18;;;11.80;;
67442;SDS011;54311;51.726;5.154;2023-11-18T08:43:16;14.27;;;11.95;;
67442;SDS011;54311;51.726;5.154;2023-11-18T08:45:42;20.40;;;12.43;;
67442;SDS011;54311;51.726;5.154;2023-11-18T08:48:07;15.27;;;11.20;;
67442;SDS011;54311;51.726;5.154;2023-11-18T08:50:33;13.13;;;11.85;;
67442;SDS011;54311;51.726;5.154;2023-11-18T08:52:59;18.58;;;12.65;;
67442;SDS011;54311;51.726;5.154;2023-11-18T08:55:29;13.75;;;12.45;;
67442;SDS011;54311;51.726;5.154;2023-11-18T08:58:04;17.02;;;12.48;;
67442;SDS011;54311;51.726;5.154;2023-11-18T09:00:41;14.85;;;11.10;;
67442;SDS011;54311;51.726;5.154;2023-11-18T09:03:09;12.60;;;11.40;;
67442;SDS011;54311;51.726;5.154;2023-11-18T09:05:49;21.58;;;11.32;;
67442;SDS011;54311;51.726;5.154;2023-11-18T09:08:29;12.10;;;10.98;;
67442;SDS011;54311;51.726;5.154;2023-11-18T09:11:00;14.40;;;10.10;;
67442;SDS011;54311;51.726;5.154;2023-11-18T09:13:30;12.25;;;10.02;;
67442;SDS011;54311;51.726;5.154;2023-11-18T09:16:00;18.17;;;10.70;;
67442;SDS011;54311;51.726;5.154;2023-11-18T09:18:27;15.60;;;10.13;;
67442;SDS011;54311;51.726;5.154;2023-11-18T09:20:55;23.52;;;10.02;;
67442;SDS011;54311;51.726;5.154;2023-11-18T09:23:22;11.23;;;9.77;;
67442;SDS011;54311;51.726;5.154;2023-11-18T09:25:48;14.60;;;9.93;;
67442;SDS011;54311;51.726;5.154;2023-11-18T09:28:15;11.90;;;9.43;;
67442;SDS011;54311;51.726;5.154;2023-11-18T09:30:45;15.65;;;10.40;;
67442;SDS011;54311;51.726;5.154;2023-11-18T09:33:22;13.70;;;8.90;;
67442;SDS011;54311;51.726;5.154;2023-11-18T09:35:57;24.92;;;15.88;;
67442;SDS011;54311;51.726;5.154;2023-11-18T09:38:29;25.05;;;17.60;;
67442;SDS011;54311;51.726;5.154;2023-11-18T09:41:00;11.57;;;10.32;;
67442;SDS011;54311;51.726;5.154;2023-11-18T09:43:32;11.50;;;9.82;;
67442;SDS011;54311;51.726;5.154;2023-11-18T09:46:07;13.25;;;8.63;;
67442;SDS011;54311;51.726;5.154;2023-11-18T09:53:51;24.38;;;18.45;;
67442;SDS011;54311;51.726;5.154;2023-11-18T09:56:23;20.35;;;14.90;;
67442;SDS011;54311;51.726;5.154;2023-11-18T09:59:18;40.35;;;29.73;;
67442;SDS011;54311;51.726;5.154;2023-11-18T10:01:51;14.18;;;11.05;;
67442;SDS011;54311;51.726;5.154;2023-11-18T10:04:22;12.35;;;9.50;;
67442;SDS011;54311;51.726;5.154;2023-11-18T10:06:52;16.65;;;10.35;;
67442;SDS011;54311;51.726;5.154;2023-11-18T10:09:18;15.88;;;12.60;;
67442;SDS011;54311;51.726;5.154;2023-11-18T10:14:25;17.48;;;12.90;;
67442;SDS011;54311;51.726;5.154;2023-11-18T10:16:54;13.95;;;12.55;;
67442;SDS011;54311;51.726;5.154;2023-11-18T10:19:20;15.75;;;12.38;;
67442;SDS011;54311;51.726;5.154;2023-11-18T10:21:46;24.90;;;17.40;;
67442;SDS011;54311;51.726;5.154;2023-11-18T10:24:14;21.75;;;13.30;;
67442;SDS011;54311;51.726;5.154;2023-11-18T10:26:44;19.20;;;13.10;;
67442;SDS011;54311;51.726;5.154;2023-11-18T10:29:14;24.05;;;15.77;;
67442;SDS011;54311;51.726;5.154;2023-11-18T10:31:40;20.63;;;13.70;;
67442;SDS011;54311;51.726;5.154;2023-11-18T10:34:14;14.80;;;12.88;;
67442;SDS011;54311;51.726;5.154;2023-11-18T10:36:58;14.50;;;10.95;;
67442;SDS011;54311;51.726;5.154;2023-11-18T10:39:27;19.75;;;13.07;;
67442;SDS011;54311;51.726;5.154;2023-11-18T10:41:58;15.50;;;12.55;;
67442;SDS011;54311;51.726;5.154;2023-11-18T10:44:25;10.93;;;9.73;;
67442;SDS011;54311;51.726;5.154;2023-11-18T10:46:51;12.98;;;10.93;;
67442;SDS011;54311;51.726;5.154;2023-11-18T10:49:23;17.25;;;14.10;;
67442;SDS011;54311;51.726;5.154;2023-11-18T10:51:52;29.17;;;19.75;;
67442;SDS011;54311;51.726;5.154;2023-11-18T10:54:18;17.38;;;14.70;;
67442;SDS011;54311;51.726;5.154;2023-11-18T10:56:50;18.50;;;11.10;;
67442;SDS011;54311;51.726;5.154;2023-11-18T10:59:21;16.13;;;10.68;;
67442;SDS011;54311;51.726;5.154;2023-11-18T11:01:47;14.52;;;10.02;;
67442;SDS011;54311;51.726;5.154;2023-11-18T11:04:14;18.27;;;12.23;;
67442;SDS011;54311;51.726;5.154;2023-11-18T11:06:42;16.33;;;9.80;;
67442;SDS011;54311;51.726;5.154;2023-11-18T11:09:11;15.20;;;10.70;;
67442;SDS011;54311;51.726;5.154;2023-11-18T11:11:48;13.40;;;9.02;;
67442;SDS011;54311;51.726;5.154;2023-11-18T11:14:15;13.65;;;11.23;;
67442;SDS011;54311;51.726;5.154;2023-11-18T11:16:45;18.50;;;13.82;;
67442;SDS011;54311;51.726;5.154;2023-11-18T11:19:33;20.73;;;13.43;;
67442;SDS011;54311;51.726;5.154;2023-11-18T11:22:09;13.60;;;11.68;;
67442;SDS011;54311;51.726;5.154;2023-11-18T11:24:54;19.33;;;12.60;;
67442;SDS011;54311;51.726;5.154;2023-11-18T11:27:50;12.57;;;9.02;;
67442;SDS011;54311;51.726;5.154;2023-11-18T11:30:30;14.43;;;11.25;;
67442;SDS011;54311;51.726;5.154;2023-11-18T11:35:53;12.00;;;10.23;;
67442;SDS011;54311;51.726;5.154;2023-11-18T11:40:47;12.43;;;8.82;;
67442;SDS011;54311;51.726;5.154;2023-11-18T11:43:14;21.83;;;15.10;;
67442;SDS011;54311;51.726;5.154;2023-11-18T11:45:46;10.07;;;9.13;;
67442;SDS011;54311;51.726;5.154;2023-11-18T11:48:16;12.50;;;8.82;;
67442;SDS011;54311;51.726;5.154;2023-11-18T11:51:02;9.30;;;8.32;;
67442;SDS011;54311;51.726;5.154;2023-11-18T11:53:46;16.30;;;9.10;;
67442;SDS011;54311;51.726;5.154;2023-11-18T11:56:17;9.13;;;7.80;;
67442;SDS011;54311;51.726;5.154;2023-11-18T11:58:46;12.13;;;6.90;;
67442;SDS011;54311;51.726;5.154;2023-11-18T12:01:26;8.63;;;7.80;;
67442;SDS011;54311;51.726;5.154;2023-11-18T12:03:58;9.30;;;7.03;;
67442;SDS011;54311;51.726;5.154;2023-11-18T12:06:31;12.82;;;8.02;;
67442;SDS011;54311;51.726;5.154;2023-11-18T12:08:57;8.70;;;6.65;;
67442;SDS011;54311;51.726;5.154;2023-11-18T12:11:24;13.07;;;7.20;;
67442;SDS011;54311;51.726;5.154;2023-11-18T12:19:33;7.70;;;7.15;;
67442;SDS011;54311;51.726;5.154;2023-11-18T12:22:18;7.45;;;6.32;;
67442;SDS011;54311;51.726;5.154;2023-11-18T12:32:57;9.48;;;5.88;;
67442;SDS011;54311;51.726;5.154;2023-11-18T12:38:13;7.78;;;6.05;;
67442;SDS011;54311;51.726;5.154;2023-11-18T12:40:53;8.55;;;5.22;;
67442;SDS011;54311;51.726;5.154;2023-11-18T12:49:02;5.97;;;5.53;;
67442;SDS011;54311;51.726;5.154;2023-11-18T12:51:28;5.60;;;5.10;;
67442;SDS011;54311;51.726;5.154;2023-11-18T12:53:56;5.07;;;4.70;;
67442;SDS011;54311;51.726;5.154;2023-11-18T12:56:21;5.38;;;4.88;;
67442;SDS011;54311;51.726;5.154;2023-11-18T12:58:50;5.25;;;4.85;;
67442;SDS011;54311;51.726;5.154;2023-11-18T13:01:16;4.72;;;4.40;;
67442;SDS011;54311;51.726;5.154;2023-11-18T13:03:41;5.97;;;4.72;;
67442;SDS011;54311;51.726;5.154;2023-11-18T13:06:08;5.63;;;4.95;;
67442;SDS011;54311;51.726;5.154;2023-11-18T13:08:34;6.28;;;5.68;;
67442;SDS011;54311;51.726;5.154;2023-11-18T13:10:59;5.57;;;5.07;;
67442;SDS011;54311;51.726;5.154;2023-11-18T13:13:30;5.55;;;5.00;;
67442;SDS011;54311;51.726;5.154;2023-11-18T13:15:58;8.23;;;5.18;;
67442;SDS011;54311;51.726;5.154;2023-11-18T13:18:24;4.93;;;4.63;;
67442;SDS011;54311;51.726;5.154;2023-11-18T13:20:55;5.80;;;5.40;;
67442;SDS011;54311;51.726;5.154;2023-11-18T13:23:24;5.10;;;4.63;;
67442;SDS011;54311;51.726;5.154;2023-11-18T13:25:50;5.80;;;5.25;;
67442;SDS011;54311;51.726;5.154;2023-11-18T13:28:15;5.30;;;4.90;;
67442;SDS011;54311;51.726;5.154;2023-11-18T13:30:42;4.93;;;4.70;;
67442;SDS011;54311;51.726;5.154;2023-11-18T13:33:07;5.32;;;5.03;;
67442;SDS011;54311;51.726;5.154;2023-11-18T13:35:33;5.50;;;5.05;;
67442;SDS011;54311;51.726;5.154;2023-11-18T13:38:00;5.50;;;5.00;;
67442;SDS011;54311;51.726;5.154;2023-11-18T13:40:41;5.80;;;5.30;;
67442;SDS011;54311;51.726;5.154;2023-11-18T13:43:08;4.82;;;4.60;;
67442;SDS011;54311;51.726;5.154;2023-11-18T13:45:34;4.82;;;4.63;;
67442;SDS011;54311;51.726;5.154;2023-11-18T13:47:59;5.85;;;4.90;;
67442;SDS011;54311;51.726;5.154;2023-11-18T13:50:26;5.07;;;4.78;;
67442;SDS011;54311;51.726;5.154;2023-11-18T13:52:52;5.38;;;4.97;;
67442;SDS011;54311;51.726;5.154;2023-11-18T13:55:18;4.93;;;4.63;;
67442;SDS011;54311;51.726;5.154;2023-11-18T13:57:51;4.80;;;4.47;;
67442;SDS011;54311;51.726;5.154;2023-11-18T14:00:18;5.13;;;4.72;;
67442;SDS011;54311;51.726;5.154;2023-11-18T14:02:43;4.82;;;4.53;;
67442;SDS011;54311;51.726;5.154;2023-11-18T14:05:16;5.28;;;5.07;;
67442;SDS011;54311;51.726;5.154;2023-11-18T14:07:42;4.60;;;4.35;;
67442;SDS011;54311;51.726;5.154;2023-11-18T14:10:08;4.32;;;4.18;;
67442;SDS011;54311;51.726;5.154;2023-11-18T14:12:39;4.88;;;4.68;;
67442;SDS011;54311;51.726;5.154;2023-11-18T14:15:05;5.75;;;5.45;;
67442;SDS011;54311;51.726;5.154;2023-11-18T14:17:34;5.70;;;5.40;;
67442;SDS011;54311;51.726;5.154;2023-11-18T14:20:00;5.47;;;5.18;;
67442;SDS011;54311;51.726;5.154;2023-11-18T14:22:27;4.72;;;4.47;;
67442;SDS011;54311;51.726;5.154;2023-11-18T14:24:53;4.70;;;4.50;;
67442;SDS011;54311;51.726;5.154;2023-11-18T14:27:18;4.35;;;4.15;;
67442;SDS011;54311;51.726;5.154;2023-11-18T14:29:44;4.57;;;4.40;;
67442;SDS011;54311;51.726;5.154;2023-11-18T14:32:11;4.28;;;4.10;;
67442;SDS011;54311;51.726;5.154;2023-11-18T14:37:58;4.55;;;4.35;;
67442;SDS011;54311;51.726;5.154;2023-11-18T14:40:27;4.40;;;4.30;;
67442;SDS011;54311;51.726;5.154;2023-11-18T14:46:20;3.83;;;3.72;;
67442;SDS011;54311;51.726;5.154;2023-11-18T14:48:46;4.22;;;4.05;;
67442;SDS011;54311;51.726;5.154;2023-11-18T14:51:11;3.75;;;3.65;;
67442;SDS011;54311;51.726;5.154;2023-11-18T14:53:37;4.07;;;3.88;;
67442;SDS011;54311;51.726;5.154;2023-11-18T14:56:03;4.40;;;4.20;;
67442;SDS011;54311;51.726;5.154;2023-11-18T14:58:30;4.20;;;4.10;;
67442;SDS011;54311;51.726;5.154;2023-11-18T15:00:57;4.40;;;4.20;;
67442;SDS011;54311;51.726;5.154;2023-11-18T15:03:24;4.10;;;4.00;;
67442;SDS011;54311;51.726;5.154;2023-11-18T15:05:49;3.85;;;3.75;;
67442;SDS011;54311;51.726;5.154;2023-11-18T15:08:15;4.22;;;4.13;;
67442;SDS011;54311;51.726;5.154;2023-11-18T15:10:41;4.30;;;4.20;;
67442;SDS011;54311;51.726;5.154;2023-11-18T15:13:10;4.07;;;3.97;;
67442;SDS011;54311;51.726;5.154;2023-11-18T15:15:42;3.90;;;3.80;;
67442;SDS011;54311;51.726;5.154;2023-11-18T15:18:08;3.85;;;3.55;;
67442;SDS011;54311;51.726;5.154;2023-11-18T15:20:35;3.85;;;3.65;;